METAR AND TAF INFORMATION
METAR FOR TGPY
ADDS - METARS form results

(0558 UTC 23 May 2019)
Data provider http://aviationweather.gov/metar/data/
 
Forecast for: TGPY (POINT SALINES , GD)
Text: TGPY 230400Z 2306/2406 09014KT 9999 FEW018
Forecast period: 0600 UTC 23 May 2019 to 0600 UTC 24 May 2019
Forecast type: FROM: standard forecast or significant change
Winds: from the E (90 degrees) at 16 MPH (14 knots; 7.2 m/s)
Visibility: 6 or more miles 10+ km)
Ceiling: at least 12,000 feet AGL
Clouds: few clouds at 1800 feet AGL
Weather: no significant weather forecast for this period

 AIRPORT MAP

 RUNWAY INFORMATION
Runway 10 Runway length 9003 ft Runway width 148 ft
Runway elevation 21 ft Runway displaced threshold 0 ft Runway heading 90
Runway 28 Runway length 9003 ft Runway width 148 ft
Runway elevation 41 ft Runway displaced threshold 0 ft Runway heading 270

 AIRPORT FREQUENCIES
Type APP Name APP Frequency 119.4 MHZ
Type GND Name GND Frequency 121.9 MHZ
Type TWR Name TWR Frequency 118.9 MHZ

 AIRPORT NEAR NAVIGATION AIDS
Type VOR-DME Name Point Salines Frequency 117100 KHZ
Type NDB Name Point Salines Frequency 362 KHZ



Powered by Virtual Airlines Manager [v2.6.2]